Aviation Digital Data Service (ADDS)

Output produced by METARs form (0027 UTC 20 April 2019)
found at http://www.aviationweather.gov/metar/data/
 
Forecast for: NZCH (CHRISTCHURCH INT, NZ)
Text: TAF NZCH 192303Z 2000/2100 06008KT 9999 -RA SCT060
Forecast period: 0000 to 1400 UTC 20 April 2019
Forecast type: FROM: standard forecast or significant change
Winds: from the ENE (60 degrees) at 9 MPH (8 knots; 4.1 m/s)
Visibility: 6 or more miles 10+ km)
Ceiling: at least 12,000 feet AGL
Clouds: scattered clouds at 6000 feet AGL
Weather: -RA  (light rain)
Text: FM201400 22010KT 9999 -SHRA SCT020 BKN040
Forecast period: 1400 UTC 20 April 2019 to 0000 UTC 21 April 2019
Forecast type: FROM: standard forecast or significant change
Winds: from the SW (220 degrees) at 12 MPH (10 knots; 5.1 m/s)
Visibility: 6 or more miles 10+ km)
Ceiling: 4000 feet AGL
Clouds: scattered clouds at 2000 feet AGL
broken clouds at 4000 feet AGL
Weather: -SHRA  (light rain showers)